TimeEDT,TemperatureF,Dew PointF,Humidity,Sea Level PressureIn,VisibilityMPH,Wind Direction,Wind SpeedMPH,Gust SpeedMPH,PrecipitationIn,Events,Conditions,WindDirDegrees,DateUTC
12:51 AM,80.1,73.9,81,29.93,10.0,SSW,9.2,-,N/A,,Partly Cloudy,210,2013-07-22 04:51:00
1:51 AM,80.1,73.9,81,29.93,10.0,SSW,9.2,-,N/A,,Partly Cloudy,210,2013-07-22 05:51:00
2:51 AM,79.0,73.9,84,29.92,10.0,SSW,8.1,-,N/A,,Mostly Cloudy,210,2013-07-22 06:51:00
3:51 AM,78.1,73.9,87,29.91,10.0,SSW,5.8,-,N/A,,Clear,210,2013-07-22 07:51:00
4:51 AM,78.1,73.9,87,29.91,10.0,WSW,4.6,-,N/A,,Scattered Clouds,240,2013-07-22 08:51:00
5:11 AM,78.8,73.4,83,29.90,10.0,SW,5.8,-,N/A,,Mostly Cloudy,230,2013-07-22 09:11:00
5:51 AM,78.1,73.9,87,29.91,10.0,SW,3.5,-,N/A,,Overcast,230,2013-07-22 09:51:00
6:38 AM,78.8,73.4,83,29.91,10.0,Calm,Calm,-,N/A,,Scattered Clouds,0,2013-07-22 10:38:00
6:51 AM,79.0,73.9,84,29.92,10.0,Calm,Calm,-,N/A,,Scattered Clouds,0,2013-07-22 10:51:00
7:51 AM,79.0,73.9,84,29.93,10.0,South,4.6,-,N/A,,Overcast,190,2013-07-22 11:51:00
8:37 AM,80.6,75.2,84,29.94,10.0,South,6.9,-,N/A,,Overcast,190,2013-07-22 12:37:00
8:51 AM,80.1,73.9,81,29.94,10.0,SSW,6.9,-,N/A,,Overcast,200,2013-07-22 12:51:00
9:51 AM,80.1,73.9,81,29.94,10.0,South,5.8,-,N/A,,Overcast,180,2013-07-22 13:51:00
10:10 AM,78.8,75.2,89,29.93,2.0,SSW,3.5,-,0.03,Rain,Heavy Rain,210,2013-07-22 14:10:00
10:21 AM,80.6,75.2,84,29.93,7.0,WSW,3.5,-,0.04,Rain,Light Rain,240,2013-07-22 14:21:00
10:34 AM,80.6,75.2,84,29.93,9.0,South,5.8,-,0.05,,Overcast,190,2013-07-22 14:34:00
10:51 AM,82.9,77.0,82,29.92,10.0,South,4.6,-,0.05,,Mostly Cloudy,190,2013-07-22 14:51:00
11:46 AM,84.2,75.2,74,29.91,10.0,SSW,5.8,-,N/A,,Partly Cloudy,200,2013-07-22 15:46:00
11:51 AM,86.0,75.0,70,29.91,10.0,SSE,8.1,-,N/A,,Partly Cloudy,160,2013-07-22 15:51:00
12:51 PM,88.0,75.0,65,29.90,10.0,South,8.1,-,N/A,,Partly Cloudy,180,2013-07-22 16:51:00
1:51 PM,88.0,73.0,61,29.88,10.0,Calm,Calm,-,N/A,,Overcast,0,2013-07-22 17:51:00
2:51 PM,87.1,75.9,69,29.86,10.0,NW,4.6,-,N/A,,Mostly Cloudy,320,2013-07-22 18:51:00
3:51 PM,82.0,75.0,79,29.83,9.0,ENE,10.4,-,0.00,,Mostly Cloudy,60,2013-07-22 19:51:00
4:00 PM,78.8,73.4,83,29.84,6.0,ENE,18.4,24.2,N/A,,Haze,70,2013-07-22 20:00:00
4:06 PM,78.8,73.4,83,29.85,1.0,ESE,24.2,36.8,0.00,Rain,Light Rain,120,2013-07-22 20:06:00
4:08 PM,78.8,73.4,83,29.86,0.5,ESE,21.9,36.8,0.07,Fog-Rain,Heavy Rain,120,2013-07-22 20:08:00
4:15 PM,75.2,71.6,89,29.86,0.2,ESE,23.0,36.8,0.84,Fog-Rain,Heavy Rain,120,2013-07-22 20:15:00
4:29 PM,75.2,69.8,83,29.85,0.2,Variable,3.5,28.8,2.08,Rain,Heavy Rain,0,2013-07-22 20:29:00
4:36 PM,75.2,69.8,83,29.84,0.5,Variable,3.5,-,2.35,Rain,Heavy Rain,0,2013-07-22 20:36:00
4:48 PM,73.4,69.8,88,29.84,2.0,Calm,Calm,-,2.48,Rain,Light Rain,0,2013-07-22 20:48:00
4:49 PM,73.4,69.8,88,29.84,3.0,Calm,Calm,-,2.48,Rain,Light Rain,0,2013-07-22 20:49:00
4:51 PM,73.9,71.1,91,29.84,5.0,Calm,Calm,-,2.48,Rain,Light Rain,0,2013-07-22 20:51:00
4:58 PM,75.2,71.6,89,29.84,6.0,Calm,Calm,-,0.01,Rain,Light Rain,0,2013-07-22 20:58:00
5:51 PM,77.0,73.0,88,29.81,10.0,NNW,3.5,-,0.01,,Partly Cloudy,340,2013-07-22 21:51:00
6:51 PM,77.0,73.9,90,29.82,10.0,NNW,3.5,-,N/A,,Partly Cloudy,340,2013-07-22 22:51:00
7:21 PM,77.0,73.4,89,29.83,2.5,NW,5.8,-,0.02,Rain,Rain,310,2013-07-22 23:21:00
7:29 PM,77.0,73.4,89,29.84,0.8,West,9.2,-,0.07,Rain,Rain,270,2013-07-22 23:29:00
7:36 PM,75.2,73.4,94,29.83,0.2,West,9.2,-,0.40,Fog-Rain,Heavy Rain,270,2013-07-22 23:36:00
7:40 PM,75.2,73.4,94,29.83,0.5,Variable,4.6,-,0.60,Fog-Rain,Heavy Rain,0,2013-07-22 23:40:00
7:48 PM,75.2,73.4,94,29.84,2.0,WSW,3.5,-,0.70,Rain,Light Rain,240,2013-07-22 23:48:00
7:51 PM,75.9,73.0,91,29.83,4.0,Calm,Calm,-,0.70,Rain,Light Rain,0,2013-07-22 23:51:00
7:54 PM,75.2,73.4,94,29.83,4.0,Calm,Calm,-,0.00,Rain,Light Rain,0,2013-07-22 23:54:00
8:18 PM,75.2,73.4,94,29.84,9.0,West,4.6,-,0.02,Rain,Light Rain,270,2013-07-23 00:18:00
8:51 PM,75.9,73.0,91,29.82,10.0,Calm,Calm,-,0.03,,Mostly Cloudy,0,2013-07-23 00:51:00
9:51 PM,75.9,73.9,94,29.82,10.0,Variable,4.6,-,N/A,,Clear,0,2013-07-23 01:51:00
10:51 PM,75.9,73.9,94,29.82,10.0,Calm,Calm,-,N/A,,Clear,0,2013-07-23 02:51:00
11:51 PM,75.9,73.9,94,29.81,10.0,South,4.6,-,N/A,,Clear,190,2013-07-23 03:51:00